createdAt,value
2022-09-29T00:01:06.857Z,3.00
2022-09-29T00:03:34.230Z,3.60
2022-09-29T00:06:01.641Z,3.03
2022-09-29T00:08:31.193Z,3.20
2022-09-29T00:10:58.544Z,2.90
2022-09-29T00:13:25.876Z,2.90
2022-09-29T00:16:00.517Z,2.93
2022-09-29T00:18:29.321Z,3.40
2022-09-29T00:21:07.601Z,3.70
2022-09-29T00:23:36.471Z,3.43
2022-09-29T00:26:14.613Z,3.50
2022-09-29T00:28:52.759Z,3.47
2022-09-29T00:31:20.626Z,3.10
2022-09-29T00:33:47.840Z,6.17
2022-09-29T00:36:17.449Z,3.27
2022-09-29T00:38:47.338Z,2.97
2022-09-29T00:41:18.313Z,3.07
2022-09-29T00:43:57.679Z,3.50
2022-09-29T00:46:49.884Z,2.70
2022-09-29T00:49:26.139Z,2.83
2022-09-29T00:52:01.960Z,3.00
2022-09-29T00:54:33.053Z,3.10
2022-09-29T00:57:02.678Z,3.20
2022-09-29T00:59:41.883Z,3.43
2022-09-29T01:02:09.419Z,3.20
2022-09-29T01:04:37.365Z,3.17
2022-09-29T01:07:04.700Z,3.23
2022-09-29T01:09:35.319Z,3.40
2022-09-29T01:12:02.551Z,3.60
2022-09-29T01:14:31.943Z,3.33
2022-09-29T01:16:59.831Z,3.57
2022-09-29T01:19:47.322Z,3.70
2022-09-29T01:22:23.016Z,3.63
2022-09-29T01:25:07.892Z,3.50
2022-09-29T01:27:59.845Z,3.30
2022-09-29T01:30:54.412Z,3.00
2022-09-29T01:33:45.737Z,3.37
2022-09-29T01:36:48.437Z,3.53
2022-09-29T01:39:33.596Z,3.60
2022-09-29T01:42:10.259Z,3.10
2022-09-29T01:45:12.816Z,3.43
2022-09-29T01:47:48.578Z,3.30
2022-09-29T01:50:23.591Z,3.37
2022-09-29T01:52:57.537Z,3.23
2022-09-29T01:55:30.425Z,3.23
2022-09-29T01:58:09.389Z,3.10
2022-09-29T02:00:44.031Z,2.90
2022-09-29T02:03:26.899Z,3.40
2022-09-29T02:05:58.692Z,3.20
2022-09-29T02:08:35.710Z,4.37
2022-09-29T02:11:04.031Z,3.27
2022-09-29T02:13:36.386Z,3.10
2022-09-29T02:16:05.778Z,3.07
2022-09-29T02:18:40.424Z,3.60
2022-09-29T02:21:09.278Z,3.33
2022-09-29T02:23:36.719Z,4.70
2022-09-29T02:26:04.331Z,3.23
2022-09-29T02:28:31.774Z,3.23
2022-09-29T02:30:59.017Z,3.27
2022-09-29T02:33:26.931Z,3.67
2022-09-29T02:36:13.120Z,3.40
2022-09-29T02:38:54.648Z,5.07
2022-09-29T02:41:47.831Z,3.73
2022-09-29T02:44:32.416Z,3.87
2022-09-29T02:47:14.415Z,3.60
2022-09-29T02:49:54.623Z,3.90
2022-09-29T02:52:40.093Z,3.70
2022-09-29T02:55:10.202Z,3.23
2022-09-29T02:58:01.934Z,3.27
2022-09-29T03:00:29.313Z,4.20
2022-09-29T03:02:56.827Z,7.93
2022-09-29T03:05:25.151Z,3.53
2022-09-29T03:07:52.616Z,5.20
2022-09-29T03:10:20.161Z,3.87
2022-09-29T03:12:47.635Z,3.37
2022-09-29T03:15:14.925Z,3.80
2022-09-29T03:17:42.229Z,3.37
2022-09-29T03:20:10.911Z,3.57
2022-09-29T03:22:38.310Z,3.07
2022-09-29T03:25:07.045Z,3.33
2022-09-29T03:27:34.400Z,3.60
2022-09-29T03:30:03.759Z,3.40
2022-09-29T03:32:31.060Z,4.50
2022-09-29T03:34:58.234Z,3.80
2022-09-29T03:37:25.455Z,3.60
2022-09-29T03:39:52.575Z,3.50
2022-09-29T03:42:22.836Z,3.20
2022-09-29T03:44:49.952Z,2.90
2022-09-29T03:47:17.022Z,3.37
2022-09-29T03:49:44.150Z,3.20
2022-09-29T03:52:11.515Z,3.30
2022-09-29T03:54:38.797Z,3.50
2022-09-29T03:57:06.179Z,3.17
2022-09-29T03:59:33.367Z,3.03
2022-09-29T04:02:00.797Z,3.30
2022-09-29T04:04:27.982Z,3.10
2022-09-29T04:06:55.130Z,3.23
2022-09-29T04:09:22.274Z,3.20
2022-09-29T04:11:49.492Z,2.83
2022-09-29T04:14:16.615Z,3.43
2022-09-29T04:16:43.772Z,3.37
2022-09-29T04:19:10.947Z,3.40
2022-09-29T04:21:38.103Z,3.67
2022-09-29T04:24:05.332Z,3.50
2022-09-29T04:26:32.510Z,3.30
2022-09-29T04:28:59.608Z,3.30
2022-09-29T04:31:26.797Z,3.30
2022-09-29T04:33:53.992Z,3.20
2022-09-29T04:36:21.102Z,3.27
2022-09-29T04:38:50.410Z,3.20
2022-09-29T04:41:18.043Z,3.10
2022-09-29T04:43:45.149Z,3.10
2022-09-29T04:46:13.832Z,3.00
2022-09-29T04:48:41.163Z,2.60
2022-09-29T04:51:10.456Z,3.30
2022-09-29T04:53:37.926Z,2.70
2022-09-29T04:56:06.802Z,2.73
2022-09-29T04:58:34.433Z,2.77
2022-09-29T05:01:09.662Z,3.17
2022-09-29T05:03:36.847Z,2.80
2022-09-29T05:06:04.078Z,2.87
2022-09-29T05:08:31.275Z,3.00
2022-09-29T05:10:58.643Z,2.83
2022-09-29T05:13:25.849Z,2.70
2022-09-29T05:15:56.821Z,2.60
2022-09-29T05:18:25.231Z,2.90
2022-09-29T05:21:10.622Z,2.73
2022-09-29T05:23:39.689Z,2.67
2022-09-29T05:26:09.169Z,2.77
2022-09-29T05:28:37.610Z,2.90
2022-09-29T05:31:07.234Z,2.30
2022-09-29T05:33:35.808Z,2.60
2022-09-29T05:36:09.339Z,2.70
2022-09-29T05:38:37.640Z,2.50
2022-09-29T05:41:05.692Z,2.77
2022-09-29T05:43:32.938Z,2.57
2022-09-29T05:46:08.897Z,2.33
2022-09-29T05:48:36.115Z,2.27
2022-09-29T05:51:17.380Z,2.30
2022-09-29T05:53:47.353Z,2.20
2022-09-29T05:56:20.174Z,2.00
2022-09-29T05:58:47.655Z,2.10
2022-09-29T06:01:19.368Z,2.10
2022-09-29T06:03:46.851Z,2.60
2022-09-29T06:06:16.547Z,2.10
2022-09-29T06:08:44.379Z,2.43
2022-09-29T06:11:14.520Z,2.20
2022-09-29T06:13:45.585Z,2.40
2022-09-29T06:16:13.891Z,2.40
2022-09-29T06:18:41.564Z,2.23
2022-09-29T06:21:11.575Z,2.20
2022-09-29T06:23:38.933Z,2.20
2022-09-29T06:26:11.528Z,1.87
2022-09-29T06:28:39.072Z,2.07
2022-09-29T06:31:07.756Z,1.87
2022-09-29T06:33:39.407Z,1.50
2022-09-29T06:36:47.788Z,1.77
2022-09-29T06:39:16.331Z,1.80
2022-09-29T06:41:54.596Z,1.97
2022-09-29T06:44:24.568Z,1.80
2022-09-29T06:46:52.008Z,1.63
2022-09-29T06:49:20.446Z,1.43
2022-09-29T06:51:48.231Z,1.53
2022-09-29T06:54:18.188Z,1.60
2022-09-29T06:56:49.489Z,2.00
2022-09-29T06:59:17.494Z,1.70
2022-09-29T07:01:47.378Z,1.97
2022-09-29T07:04:14.556Z,1.73
2022-09-29T07:06:41.942Z,1.40
2022-09-29T07:09:15.851Z,1.70
2022-09-29T07:11:47.778Z,1.43
2022-09-29T07:14:16.435Z,1.53
2022-09-29T07:16:44.146Z,1.50
2022-09-29T07:19:11.387Z,1.50
2022-09-29T07:21:38.604Z,1.30
2022-09-29T07:24:06.214Z,1.43
2022-09-29T07:26:33.499Z,1.50
2022-09-29T07:29:00.738Z,1.50
2022-09-29T07:31:30.251Z,1.50
2022-09-29T07:33:58.884Z,1.47
2022-09-29T07:36:26.051Z,1.50
2022-09-29T07:38:53.781Z,1.30
2022-09-29T07:41:23.888Z,1.67
2022-09-29T07:43:51.239Z,1.50
2022-09-29T07:46:18.501Z,1.30
2022-09-29T07:48:45.689Z,1.70
2022-09-29T07:51:15.574Z,1.30
2022-09-29T07:53:43.453Z,1.35
2022-09-29T07:56:13.958Z,1.83
2022-09-29T07:58:42.366Z,1.50
2022-09-29T08:01:12.905Z,1.50
2022-09-29T08:03:41.903Z,1.75
2022-09-29T08:06:10.638Z,1.60
2022-09-29T08:08:39.402Z,1.70
2022-09-29T08:11:25.993Z,1.60
2022-09-29T08:13:56.756Z,1.55
2022-09-29T08:16:24.028Z,1.48
2022-09-29T08:18:51.261Z,1.65
2022-09-29T08:21:18.531Z,1.50
2022-09-29T08:23:45.768Z,1.60
2022-09-29T08:26:16.103Z,1.98
2022-09-29T08:28:44.512Z,1.45
2022-09-29T08:31:21.658Z,1.60
2022-09-29T08:33:50.655Z,1.48
2022-09-29T08:36:18.944Z,1.50
2022-09-29T08:38:48.757Z,1.30
2022-09-29T08:41:34.007Z,1.60
2022-09-29T08:44:33.684Z,1.85
2022-09-29T08:47:10.987Z,1.48
2022-09-29T08:49:42.625Z,1.50
2022-09-29T08:52:22.986Z,1.60
2022-09-29T08:54:55.194Z,1.60
2022-09-29T08:57:22.385Z,1.30
2022-09-29T08:59:58.938Z,1.25
2022-09-29T09:02:34.997Z,1.15
2022-09-29T09:05:11.244Z,1.20
2022-09-29T09:08:26.260Z,1.48
2022-09-29T09:11:13.784Z,1.20
2022-09-29T09:14:08.041Z,1.20
2022-09-29T09:16:53.513Z,1.30
2022-09-29T09:19:55.485Z,1.20
2022-09-29T09:22:23.914Z,1.17
2022-09-29T09:25:04.953Z,1.20
2022-09-29T09:27:38.420Z,1.27
2022-09-29T09:30:12.588Z,1.10
2022-09-29T09:32:52.906Z,1.10
2022-09-29T09:35:54.844Z,1.30
2022-09-29T09:38:34.221Z,1.02
2022-09-29T09:41:02.267Z,1.25
2022-09-29T09:43:29.352Z,1.20
2022-09-29T09:46:03.090Z,1.20
2022-09-29T09:48:38.845Z,1.17
2022-09-29T09:51:25.209Z,1.30
2022-09-29T09:53:55.062Z,1.10
2022-09-29T09:56:51.759Z,1.10
2022-09-29T09:59:58.341Z,1.10
2022-09-29T10:02:25.637Z,1.20
2022-09-29T10:04:54.577Z,1.10
2022-09-29T10:07:24.468Z,1.10
2022-09-29T10:09:52.724Z,1.05
2022-09-29T10:12:22.908Z,1.20
2022-09-29T10:15:19.068Z,1.10
2022-09-29T10:17:50.903Z,1.00
2022-09-29T10:20:34.298Z,1.02
2022-09-29T10:23:33.573Z,0.90
2022-09-29T10:26:09.897Z,1.10
2022-09-29T10:28:44.112Z,1.00
2022-09-29T10:31:27.775Z,1.10
2022-09-29T10:34:04.620Z,1.05
2022-09-29T10:36:46.569Z,1.00
2022-09-29T10:39:43.365Z,1.10
2022-09-29T10:42:25.902Z,0.90
2022-09-29T10:45:01.585Z,0.93
2022-09-29T10:47:29.399Z,1.20
2022-09-29T10:50:15.118Z,0.90
2022-09-29T10:52:44.977Z,0.90
2022-09-29T10:55:21.482Z,0.85
2022-09-29T10:57:49.431Z,0.80
2022-09-29T11:00:38.930Z,0.85
2022-09-29T11:03:08.949Z,0.73
2022-09-29T11:05:38.041Z,0.65
2022-09-29T11:08:11.556Z,0.68
2022-09-29T11:10:39.092Z,0.70
2022-09-29T11:13:24.867Z,0.70
2022-09-29T11:15:52.071Z,0.70
2022-09-29T11:18:28.414Z,0.70
2022-09-29T11:21:22.350Z,0.90
2022-09-29T11:23:59.840Z,0.70
2022-09-29T11:26:39.633Z,0.70
2022-09-29T11:29:32.988Z,0.70
2022-09-29T11:32:34.461Z,0.70
2022-09-29T11:35:33.660Z,0.73
2022-09-29T11:38:16.742Z,0.80
2022-09-29T11:41:02.447Z,0.80
2022-09-29T11:44:09.556Z,0.77
2022-09-29T11:47:00.507Z,0.80
2022-09-29T11:49:56.607Z,0.70
2022-09-29T11:52:49.758Z,0.70
2022-09-29T11:55:29.437Z,0.80
2022-09-29T11:58:21.344Z,0.65
2022-09-29T12:01:19.291Z,0.80
2022-09-29T12:04:05.606Z,0.65
2022-09-29T12:06:54.912Z,0.70
2022-09-29T12:09:55.166Z,0.90
2022-09-29T12:12:55.721Z,0.52
2022-09-29T12:15:42.295Z,0.90
2022-09-29T12:18:36.476Z,0.75
2022-09-29T12:21:07.278Z,0.65
2022-09-29T12:23:38.091Z,0.57
2022-09-29T12:26:15.777Z,0.70
2022-09-29T12:28:51.327Z,0.68
2022-09-29T12:31:37.286Z,0.57
2022-09-29T12:34:17.833Z,0.60
2022-09-29T12:36:54.038Z,0.70
2022-09-29T12:39:35.892Z,0.68
2022-09-29T12:42:21.137Z,0.70
2022-09-29T12:45:10.852Z,0.70
2022-09-29T12:48:01.758Z,0.50
2022-09-29T12:50:39.796Z,0.77
2022-09-29T12:53:16.391Z,0.50
2022-09-29T12:55:54.207Z,0.57
2022-09-29T12:58:45.784Z,0.70
2022-09-29T13:01:29.123Z,0.70
2022-09-29T13:04:23.987Z,0.65
2022-09-29T13:07:00.362Z,0.75
2022-09-29T13:09:42.613Z,0.80
2022-09-29T13:12:12.845Z,0.90
2022-09-29T13:14:52.276Z,0.70
2022-09-29T13:17:28.095Z,0.82
2022-09-29T13:20:16.311Z,0.65
2022-09-29T13:23:21.261Z,0.88
2022-09-29T13:26:24.191Z,0.82
2022-09-29T13:28:58.931Z,0.88
2022-09-29T13:31:33.375Z,0.80
2022-09-29T13:34:03.336Z,1.00
2022-09-29T13:36:40.510Z,0.95
2022-09-29T13:39:19.475Z,0.90
2022-09-29T13:41:46.787Z,0.70
2022-09-29T13:44:16.990Z,0.70
2022-09-29T13:46:44.498Z,0.90
2022-09-29T13:49:14.652Z,0.73
2022-09-29T13:52:11.800Z,1.00
2022-09-29T13:54:42.201Z,0.80
2022-09-29T13:57:27.667Z,0.93
2022-09-29T13:59:55.550Z,0.90
2022-09-29T14:02:33.324Z,0.80
2022-09-29T14:05:01.015Z,0.80
2022-09-29T14:07:46.462Z,0.90
2022-09-29T14:10:31.749Z,0.85
2022-09-29T14:13:22.236Z,0.75
2022-09-29T14:16:22.955Z,0.68
2022-09-29T14:19:13.166Z,0.73
2022-09-29T14:21:50.485Z,0.70
2022-09-29T14:24:36.809Z,0.88
2022-09-29T14:27:27.995Z,0.88
2022-09-29T14:30:10.113Z,0.77
2022-09-29T14:32:47.937Z,0.93
2022-09-29T14:35:23.330Z,0.90
2022-09-29T14:38:02.406Z,0.70
2022-09-29T14:40:29.889Z,0.85
2022-09-29T14:43:18.088Z,0.90
2022-09-29T14:46:22.636Z,0.90
2022-09-29T14:49:48.749Z,1.00
2022-09-29T14:52:54.137Z,0.90
2022-09-29T14:55:42.627Z,0.90
2022-09-29T14:58:47.234Z,0.95
2022-09-29T15:01:30.893Z,1.00
2022-09-29T15:04:07.205Z,1.20
2022-09-29T15:06:34.431Z,1.00
2022-09-29T15:09:18.140Z,1.15
2022-09-29T15:11:58.282Z,1.27
2022-09-29T15:14:28.271Z,0.82
2022-09-29T15:17:14.931Z,0.95
2022-09-29T15:19:56.836Z,1.00
2022-09-29T15:23:07.939Z,0.93
2022-09-29T15:25:41.144Z,0.80
2022-09-29T15:28:32.352Z,1.00
2022-09-29T15:31:08.006Z,1.00
2022-09-29T15:33:43.940Z,1.10
2022-09-29T15:36:31.658Z,1.00
2022-09-29T15:39:06.779Z,0.90
2022-09-29T15:41:35.568Z,0.90
2022-09-29T15:44:20.837Z,0.95
2022-09-29T15:46:49.778Z,1.00
2022-09-29T15:49:21.397Z,1.00
2022-09-29T15:52:07.081Z,1.00
2022-09-29T15:54:47.778Z,0.83
2022-09-29T15:57:58.552Z,0.90
2022-09-29T16:00:28.488Z,1.03
2022-09-29T16:03:04.731Z,0.80
2022-09-29T16:05:35.433Z,0.90
2022-09-29T16:08:15.875Z,1.07
2022-09-29T16:10:55.195Z,1.00
2022-09-29T16:13:32.265Z,1.00
2022-09-29T16:16:08.613Z,0.83
2022-09-29T16:18:43.578Z,0.90
2022-09-29T16:21:14.323Z,1.00
2022-09-29T16:23:59.950Z,0.80
2022-09-29T16:26:43.794Z,1.10
2022-09-29T16:29:11.016Z,1.00
2022-09-29T16:31:40.728Z,1.10
2022-09-29T16:34:23.390Z,0.90
2022-09-29T16:36:52.349Z,1.17
2022-09-29T16:39:29.475Z,1.10
2022-09-29T16:42:06.178Z,1.07
2022-09-29T16:44:36.891Z,1.00
2022-09-29T16:47:30.537Z,0.90
2022-09-29T16:50:05.373Z,1.20
2022-09-29T16:52:35.254Z,1.00
2022-09-29T16:55:23.849Z,1.30
2022-09-29T16:58:03.242Z,0.83
2022-09-29T17:00:30.907Z,1.13
2022-09-29T17:02:58.568Z,1.20
2022-09-29T17:05:26.746Z,1.53
2022-09-29T17:08:01.919Z,1.23
2022-09-29T17:10:29.515Z,1.10
2022-09-29T17:12:58.148Z,1.30
2022-09-29T17:15:26.032Z,1.20
2022-09-29T17:17:54.851Z,1.30
2022-09-29T17:20:30.320Z,1.30
2022-09-29T17:23:00.551Z,1.20
2022-09-29T17:25:28.261Z,1.53
2022-09-29T17:28:14.895Z,1.50
2022-09-29T17:30:49.348Z,1.30
2022-09-29T17:33:22.289Z,1.40
2022-09-29T17:35:56.064Z,1.50
2022-09-29T17:38:28.586Z,1.47
2022-09-29T17:41:03.042Z,1.70
2022-09-29T17:43:31.694Z,1.70
2022-09-29T17:46:00.410Z,1.70
2022-09-29T17:48:28.954Z,1.50
2022-09-29T17:50:58.253Z,1.60
2022-09-29T17:53:27.896Z,1.40
2022-09-29T17:55:57.615Z,1.53
2022-09-29T17:58:25.146Z,1.40
2022-09-29T18:00:54.053Z,1.20
2022-09-29T18:03:23.046Z,1.30
2022-09-29T18:05:57.052Z,1.10
2022-09-29T18:08:26.560Z,1.40
2022-09-29T18:10:58.937Z,1.10
2022-09-29T18:13:28.092Z,1.23
2022-09-29T18:15:56.912Z,1.40
2022-09-29T18:18:25.557Z,1.40
2022-09-29T18:20:52.787Z,1.20
2022-09-29T18:23:23.352Z,1.47
2022-09-29T18:25:52.405Z,1.53
2022-09-29T18:28:20.365Z,1.43
2022-09-29T18:30:54.828Z,1.30
2022-09-29T18:33:22.512Z,1.50
2022-09-29T18:35:54.084Z,1.53
2022-09-29T18:38:22.131Z,1.17
2022-09-29T18:40:54.278Z,1.10
2022-09-29T18:43:25.177Z,1.10
2022-09-29T18:45:53.744Z,1.40
2022-09-29T18:48:21.081Z,1.20
2022-09-29T18:50:50.902Z,1.50
2022-09-29T18:53:20.858Z,1.23
2022-09-29T18:55:53.246Z,1.20
2022-09-29T18:58:21.713Z,1.10
2022-09-29T19:00:55.488Z,1.00
2022-09-29T19:03:24.839Z,1.10
2022-09-29T19:05:52.590Z,1.30
2022-09-29T19:08:20.874Z,1.23
2022-09-29T19:10:54.181Z,1.10
2022-09-29T19:13:22.139Z,1.23
2022-09-29T19:15:50.133Z,1.00
2022-09-29T19:18:22.733Z,1.10
2022-09-29T19:20:58.717Z,1.10
2022-09-29T19:23:27.106Z,1.10
2022-09-29T19:25:58.763Z,1.10
2022-09-29T19:28:27.597Z,0.90
2022-09-29T19:31:03.994Z,1.20
2022-09-29T19:33:31.526Z,1.20
2022-09-29T19:36:08.517Z,1.13
2022-09-29T19:38:37.249Z,1.20
2022-09-29T19:41:05.605Z,1.10
2022-09-29T19:43:33.371Z,1.10
2022-09-29T19:46:07.856Z,1.00
2022-09-29T19:48:35.336Z,1.30
2022-09-29T19:51:21.961Z,0.83
2022-09-29T19:53:50.863Z,1.13
2022-09-29T19:56:18.202Z,1.10
2022-09-29T19:58:45.844Z,1.10
2022-09-29T20:01:13.217Z,1.10
2022-09-29T20:03:46.004Z,1.00
2022-09-29T20:06:19.559Z,1.10
2022-09-29T20:08:47.088Z,1.07
2022-09-29T20:11:14.682Z,1.17
2022-09-29T20:13:42.213Z,1.10
2022-09-29T20:16:10.226Z,1.00
2022-09-29T20:18:37.842Z,0.90
2022-09-29T20:21:10.014Z,1.10
2022-09-29T20:23:39.979Z,1.17
2022-09-29T20:26:10.976Z,1.10
2022-09-29T20:28:39.023Z,1.10
2022-09-29T20:31:07.830Z,1.10
2022-09-29T20:33:36.598Z,0.90
2022-09-29T20:36:05.587Z,1.10
2022-09-29T20:38:36.075Z,1.50
2022-09-29T20:41:04.078Z,1.00
2022-09-29T20:43:34.747Z,1.13
2022-09-29T20:46:08.660Z,1.00
2022-09-29T20:48:37.820Z,1.20
2022-09-29T20:51:06.879Z,0.93
2022-09-29T20:53:39.397Z,0.83
2022-09-29T20:56:15.669Z,1.00
2022-09-29T20:58:44.699Z,1.10
2022-09-29T21:01:21.100Z,1.13
2022-09-29T21:03:55.634Z,1.20
2022-09-29T21:06:28.751Z,1.20
2022-09-29T21:08:57.638Z,1.10
2022-09-29T21:11:24.973Z,1.20
2022-09-29T21:13:57.027Z,1.20
2022-09-29T21:16:25.710Z,1.03
2022-09-29T21:18:56.027Z,1.20
2022-09-29T21:21:24.138Z,1.10
2022-09-29T21:23:51.329Z,1.13
2022-09-29T21:26:22.724Z,1.20
2022-09-29T21:28:53.254Z,1.10
2022-09-29T21:31:24.254Z,1.20
2022-09-29T21:34:13.633Z,1.30
2022-09-29T21:36:40.957Z,1.50
2022-09-29T21:39:09.167Z,1.20
2022-09-29T21:41:39.140Z,1.27
2022-09-29T21:44:13.138Z,1.30
2022-09-29T21:46:41.422Z,1.40
2022-09-29T21:49:10.077Z,1.40
2022-09-29T21:51:39.939Z,1.33
2022-09-29T21:54:10.883Z,1.63
2022-09-29T21:56:40.583Z,1.20
2022-09-29T21:59:09.292Z,1.33
2022-09-29T22:01:38.814Z,1.50
2022-09-29T22:04:06.673Z,1.70
2022-09-29T22:06:35.913Z,1.57
2022-09-29T22:09:03.876Z,1.53
2022-09-29T22:11:33.885Z,1.70
2022-09-29T22:14:01.850Z,1.80
2022-09-29T22:16:30.984Z,1.80
2022-09-29T22:19:25.475Z,1.70
2022-09-29T22:21:48.053Z,1.50
2022-09-29T22:24:15.422Z,1.97
2022-09-29T22:26:42.734Z,1.60
2022-09-29T22:29:10.046Z,1.50
2022-09-29T22:31:40.477Z,1.63
2022-09-29T22:34:08.690Z,1.40
2022-09-29T22:36:36.261Z,1.30
2022-09-29T22:39:07.031Z,1.20
2022-09-29T22:41:37.062Z,1.40
2022-09-29T22:44:04.717Z,1.57
2022-09-29T22:46:32.433Z,1.37
2022-09-29T22:49:00.081Z,1.40
2022-09-29T22:51:28.545Z,1.23
2022-09-29T22:53:55.799Z,1.43
2022-09-29T22:56:28.962Z,1.40
2022-09-29T22:59:01.728Z,1.30
2022-09-29T23:01:29.261Z,1.23
2022-09-29T23:03:56.704Z,1.33
2022-09-29T23:06:24.000Z,1.30
2022-09-29T23:08:51.286Z,1.10
2022-09-29T23:11:19.791Z,1.40
2022-09-29T23:13:48.044Z,1.20
2022-09-29T23:16:16.988Z,1.30
2022-09-29T23:18:46.074Z,1.30
2022-09-29T23:21:20.960Z,1.20
2022-09-29T23:23:51.553Z,1.33
2022-09-29T23:26:18.902Z,1.50
2022-09-29T23:28:46.135Z,1.30
2022-09-29T23:31:13.465Z,1.43
2022-09-29T23:33:40.805Z,1.33
2022-09-29T23:36:15.625Z,1.20
2022-09-29T23:39:03.448Z,1.13
2022-09-29T23:41:31.275Z,1.20
2022-09-29T23:44:00.504Z,1.30
2022-09-29T23:46:31.858Z,1.47
2022-09-29T23:49:04.563Z,1.40
2022-09-29T23:51:32.310Z,1.20
2022-09-29T23:54:00.018Z,1.33
2022-09-29T23:56:27.967Z,1.20
2022-09-29T23:58:55.583Z,1.30
